Language: 


Des rapports , des résumés tant et plus, au choix de chacun....


Données statistiques de la station
Quotidien Rapport Mars 1, 2017 Unités:  les deux    Anglais   Métrique
« Précédent Jour
Suivant Jour »
Quotidien Hebdomadaire Mensuel Annuel Actuel
  Haut: Bas: Moyen:
Température: TemperatureC °F /  -17.8 °C 0.0 °F /  -17.8 °C 7.9 °F /  -13.4 °C
Pt de rosée: DewpointC °F /  -17.8 °C 4.1 °F /  -15.5 °C 6.2 °F /  -14.3 °C
Humidité: Humidity % 0 % 88 %
Vitesse du vent: WindSpeedKMH mph /  0 km/h - 16.1 mph /  25.9 km/h
Rafales: WindSpeedGustKMH mph /  0 km/h - -
Vent:- - WSW
Pression: PressurehPa in /  0 hPa 0.0 in /  0 hPa -
Précipitation: 2.8 in /  71.12 mm    
Historical Graphs
 
 
Données statistiques pour Mars 1, 2017
Heure Température Point de rosée Pression Vent Vitesse du vent Refales Humidité Pluie (taux horaire)
TemperatureC °F /  -17.8 °C DewpointC °F /  -17.8 °C PressurehPa in /  0 hPa Calm     Humidity % HourlyPrecipMM in /  0 mm
00:01 5.9 °F /  -14.5 °C 5.4 °F /  -14.8 °C 994.1 in /  33660.2 hPa SSW 13.0 mph /  20.9 km/h 20.9 mph /  33.6 km/h 97 % 0.3 in /  7.62 mm
00:07 6.0 °F /  -14.4 °C 5.6 °F /  -14.7 °C 994.1 in /  33660.2 hPa WSW 12.2 mph /  19.6 km/h 23.0 mph /  37 km/h 97 % 0.3 in /  7.62 mm
00:12 6.1 °F /  -14.4 °C 5.6 °F /  -14.7 °C 994.1 in /  33660.2 hPa SSW 16.3 mph /  26.2 km/h 23.0 mph /  37 km/h 97 % 0.3 in /  7.62 mm
00:17 6.2 °F /  -14.3 °C 5.7 °F /  -14.6 °C 994.1 in /  33660.2 hPa WSW 15.4 mph /  24.8 km/h 20.9 mph /  33.6 km/h 97 % 0.3 in /  7.62 mm
00:22 6.3 °F /  -14.3 °C 5.8 °F /  -14.6 °C 994.1 in /  33660.2 hPa SW 14.0 mph /  22.5 km/h 20.6 mph /  33.2 km/h 97 % 0.3 in /  7.62 mm
00:27 6.4 °F /  -14.2 °C 5.9 °F /  -14.5 °C 995.1 in /  33694.1 hPa WSW 13.0 mph /  20.9 km/h 20.6 mph /  33.2 km/h 97 % 0.3 in /  7.62 mm
00:32 6.4 °F /  -14.2 °C 6.0 °F /  -14.4 °C 995.1 in /  33694.1 hPa SSW 16.6 mph /  26.7 km/h 20.1 mph /  32.3 km/h 97 % 0.0 in /  0 mm
00:37 6.6 °F /  -14.1 °C 6.1 °F /  -14.4 °C 995.1 in /  33694.1 hPa SSW 13.0 mph /  20.9 km/h 20.1 mph /  32.3 km/h 97 % 0.0 in /  0 mm
00:42 6.6 °F /  -14.1 °C 6.1 °F /  -14.4 °C 994.1 in /  33660.2 hPa WSW 16.3 mph /  26.2 km/h 21.2 mph /  34.1 km/h 97 % 0.0 in /  0 mm
00:47 6.7 °F /  -14.1 °C 6.2 °F /  -14.3 °C 994.1 in /  33660.2 hPa SW 15.8 mph /  25.4 km/h 21.2 mph /  34.1 km/h 97 % 0.0 in /  0 mm
00:52 6.7 °F /  -14.1 °C 6.2 °F /  -14.3 °C 994.1 in /  33660.2 hPa WSW 17.2 mph /  27.7 km/h 23.8 mph /  38.3 km/h 97 % 0.0 in /  0 mm
00:57 6.8 °F /  -14 °C 6.3 °F /  -14.3 °C 994.1 in /  33660.2 hPa WSW 24.5 mph /  39.4 km/h 24.5 mph /  39.4 km/h 97 % 0.0 in /  0 mm
01:02 6.8 °F /  -14 °C 6.3 °F /  -14.3 °C 994.1 in /  33660.2 hPa SW 16.6 mph /  26.7 km/h 24.5 mph /  39.4 km/h 97 % 0.0 in /  0 mm
01:07 6.8 °F /  -14 °C 6.3 °F /  -14.3 °C 994.1 in /  33660.2 hPa WSW 18.0 mph /  29 km/h 21.9 mph /  35.2 km/h 97 % 0.0 in /  0 mm
01:12 6.8 °F /  -14 °C 6.4 °F /  -14.2 °C 994.1 in /  33660.2 hPa WSW 17.2 mph /  27.7 km/h 21.9 mph /  35.2 km/h 97 % 0.0 in /  0 mm
01:17 6.8 °F /  -14 °C 6.4 °F /  -14.2 °C 994.1 in /  33660.2 hPa SW 19.5 mph /  31.4 km/h 24.8 mph /  39.9 km/h 97 % 0.0 in /  0 mm
01:22 6.9 °F /  -13.9 °C 6.5 °F /  -14.2 °C 994.1 in /  33660.2 hPa West 31.4 mph /  50.5 km/h 31.4 mph /  50.5 km/h 97 % 0.0 in /  0 mm
01:27 7.1 °F /  -13.8 °C 6.4 °F /  -14.2 °C 994.1 in /  33660.2 hPa West 19.8 mph /  31.9 km/h 32.0 mph /  51.5 km/h 96 % 0.0 in /  0 mm
01:32 7.2 °F /  -13.8 °C 6.6 °F /  -14.1 °C 994.1 in /  33660.2 hPa WSW 17.7 mph /  28.5 km/h 32.0 mph /  51.5 km/h 96 % 0.3 in /  7.62 mm
01:37 7.2 °F /  -13.8 °C 6.6 °F /  -14.1 °C 994.1 in /  33660.2 hPa WSW 23.3 mph /  37.5 km/h 23.3 mph /  37.5 km/h 96 % 0.3 in /  7.62 mm
01:42 7.3 °F /  -13.7 °C 6.7 °F /  -14.1 °C 994.1 in /  33660.2 hPa West 31.4 mph /  50.5 km/h 32.8 mph /  52.8 km/h 96 % 0.3 in /  7.62 mm
01:47 7.3 °F /  -13.7 °C 6.6 °F /  -14.1 °C 994.1 in /  33660.2 hPa WSW 24.8 mph /  39.9 km/h 38.1 mph /  61.3 km/h 95 % 0.3 in /  7.62 mm
01:52 7.4 °F /  -13.7 °C 6.6 °F /  -14.1 °C 994.1 in /  33660.2 hPa WSW 37.0 mph /  59.5 km/h 38.5 mph /  62 km/h 94 % 0.3 in /  7.62 mm
01:57 7.6 °F /  -13.6 °C 6.2 °F /  -14.3 °C 994.1 in /  33660.2 hPa West 35.2 mph /  56.6 km/h 38.5 mph /  62 km/h 91 % 0.3 in /  7.62 mm
02:02 0.0 °F /  -17.8 °C 5.9 °F /  -14.5 °C 0.0 in /  0 hPa Calm     0 % 0.3 in /  7.62 mm
02:07 7.7 °F /  -13.5 °C 5.7 °F /  -14.6 °C 994.1 in /  33660.2 hPa West 23.0 mph /  37 km/h 41.4 mph /  66.6 km/h 87 % 0.3 in /  7.62 mm
02:12 7.7 °F /  -13.5 °C 5.6 °F /  -14.7 °C 995.1 in /  33694.1 hPa WSW 24.5 mph /  39.4 km/h 41.4 mph /  66.6 km/h 86 % 0.3 in /  7.62 mm
02:17 7.8 °F /  -13.4 °C 5.5 °F /  -14.7 °C 995.1 in /  33694.1 hPa WSW 31.7 mph /  51 km/h 41.4 mph /  66.6 km/h 85 % 0.3 in /  7.62 mm
02:22 7.8 °F /  -13.4 °C 5.3 °F /  -14.8 °C 995.1 in /  33694.1 hPa West 29.9 mph /  48.1 km/h 41.7 mph /  67.1 km/h 84 % 0.3 in /  7.62 mm
02:27 7.8 °F /  -13.4 °C 5.1 °F /  -14.9 °C 995.1 in /  33694.1 hPa West 37.0 mph /  59.5 km/h 41.7 mph /  67.1 km/h 83 % 0.3 in /  7.62 mm
02:32 7.9 °F /  -13.4 °C 5.1 °F /  -14.9 °C 995.1 in /  33694.1 hPa West 28.5 mph /  45.9 km/h 41.7 mph /  67.1 km/h 82 % 0.0 in /  0 mm
02:37 7.9 °F /  -13.4 °C 4.9 °F /  -15.1 °C 995.1 in /  33694.1 hPa West 24.5 mph /  39.4 km/h 43.6 mph /  70.2 km/h 81 % 0.0 in /  0 mm
02:42 8.1 °F /  -13.3 °C 4.9 °F /  -15.1 °C 995.1 in /  33694.1 hPa West 28.0 mph /  45.1 km/h 43.6 mph /  70.2 km/h 81 % 0.0 in /  0 mm
02:47 8.1 °F /  -13.3 °C 4.8 °F /  -15.1 °C 995.1 in /  33694.1 hPa West 36.0 mph /  57.9 km/h 41.7 mph /  67.1 km/h 80 % 0.0 in /  0 mm
02:52 8.1 °F /  -13.3 °C 4.7 °F /  -15.2 °C 995.1 in /  33694.1 hPa West 27.7 mph /  44.6 km/h 41.7 mph /  67.1 km/h 79 % 0.0 in /  0 mm
02:57 8.1 °F /  -13.3 °C 4.6 °F /  -15.2 °C 995.1 in /  33694.1 hPa West 24.5 mph /  39.4 km/h 37.5 mph /  60.3 km/h 79 % 0.0 in /  0 mm
03:02 8.1 °F /  -13.3 °C 4.8 °F /  -15.1 °C 995.1 in /  33694.1 hPa West 23.8 mph /  38.3 km/h 33.5 mph /  53.9 km/h 80 % 0.0 in /  0 mm
03:07 8.1 °F /  -13.3 °C 4.8 °F /  -15.1 °C 995.1 in /  33694.1 hPa West 20.6 mph /  33.2 km/h 41.0 mph /  66 km/h 80 % 0.0 in /  0 mm
03:12 8.1 °F /  -13.3 °C 4.6 °F /  -15.2 °C 995.1 in /  33694.1 hPa West 27.7 mph /  44.6 km/h 41.0 mph /  66 km/h 79 % 0.0 in /  0 mm
03:17 8.1 °F /  -13.3 °C 4.6 °F /  -15.2 °C 995.1 in /  33694.1 hPa WSW 29.9 mph /  48.1 km/h 37.8 mph /  60.8 km/h 79 % 0.0 in /  0 mm
03:22 8.1 °F /  -13.3 °C 4.6 °F /  -15.2 °C 995.1 in /  33694.1 hPa West 32.8 mph /  52.8 km/h 38.5 mph /  62 km/h 79 % 0.0 in /  0 mm
03:27 8.1 °F /  -13.3 °C 4.4 °F /  -15.3 °C 995.1 in /  33694.1 hPa WSW 31.7 mph /  51 km/h 38.5 mph /  62 km/h 78 % 0.0 in /  0 mm
03:32 8.1 °F /  -13.3 °C 4.4 °F /  -15.3 °C 995.1 in /  33694.1 hPa West 17.2 mph /  27.7 km/h 37.8 mph /  60.8 km/h 78 % 0.0 in /  0 mm
03:37 8.1 °F /  -13.3 °C 4.3 °F /  -15.4 °C 996.2 in /  33731.3 hPa West 23.0 mph /  37 km/h 36.7 mph /  59.1 km/h 77 % 0.0 in /  0 mm
03:42 8.1 °F /  -13.3 °C 4.4 °F /  -15.3 °C 996.2 in /  33731.3 hPa West 28.0 mph /  45.1 km/h 41.7 mph /  67.1 km/h 78 % 0.0 in /  0 mm
03:47 8.1 °F /  -13.3 °C 4.4 °F /  -15.3 °C 996.2 in /  33731.3 hPa WSW 30.6 mph /  49.2 km/h 41.7 mph /  67.1 km/h 78 % 0.0 in /  0 mm
03:52 8.1 °F /  -13.3 °C 4.4 °F /  -15.3 °C 996.2 in /  33731.3 hPa WSW 23.8 mph /  38.3 km/h 36.7 mph /  59.1 km/h 78 % 0.0 in /  0 mm
03:57 8.1 °F /  -13.3 °C 4.2 °F /  -15.4 °C 996.2 in /  33731.3 hPa West 19.1 mph /  30.7 km/h 36.7 mph /  59.1 km/h 77 % 0.0 in /  0 mm
04:02 7.9 °F /  -13.4 °C 4.2 °F /  -15.4 °C 996.2 in /  33731.3 hPa West 35.6 mph /  57.3 km/h 38.5 mph /  62 km/h 77 % 0.0 in /  0 mm
04:07 7.8 °F /  -13.4 °C 4.1 °F /  -15.5 °C 996.2 in /  33731.3 hPa WSW 37.5 mph /  60.3 km/h 38.5 mph /  62 km/h 77 % 0.0 in /  0 mm
04:12 7.8 °F /  -13.4 °C 4.1 °F /  -15.5 °C 996.2 in /  33731.3 hPa WSW 25.6 mph /  41.2 km/h 37.8 mph /  60.8 km/h 77 % 0.0 in /  0 mm
04:17 7.7 °F /  -13.5 °C 4.2 °F /  -15.4 °C 996.2 in /  33731.3 hPa WSW 13.7 mph /  22 km/h 37.8 mph /  60.8 km/h 78 % 0.0 in /  0 mm
04:22 7.8 °F /  -13.4 °C 4.1 °F /  -15.5 °C 996.8 in /  33751.6 hPa West 28.5 mph /  45.9 km/h 38.9 mph /  62.6 km/h 77 % 0.0 in /  0 mm
04:27 7.7 °F /  -13.5 °C 4.2 °F /  -15.4 °C 996.8 in /  33751.6 hPa West 28.5 mph /  45.9 km/h 38.9 mph /  62.6 km/h 78 % 0.0 in /  0 mm
04:32 7.7 °F /  -13.5 °C 4.2 °F /  -15.4 °C 996.8 in /  33751.6 hPa WSW 21.2 mph /  34.1 km/h 35.2 mph /  56.6 km/h 78 % 0.0 in /  0 mm
04:38 7.6 °F /  -13.6 °C 4.1 °F /  -15.5 °C 996.8 in /  33751.6 hPa WSW 16.9 mph /  27.2 km/h 28.5 mph /  45.9 km/h 79 % 0.0 in /  0 mm
04:43 7.7 °F /  -13.5 °C 4.2 °F /  -15.4 °C 996.8 in /  33751.6 hPa West 28.0 mph /  45.1 km/h 40.4 mph /  65 km/h 79 % 0.0 in /  0 mm
04:48 7.7 °F /  -13.5 °C 4.2 °F /  -15.4 °C 996.8 in /  33751.6 hPa West 17.7 mph /  28.5 km/h 40.4 mph /  65 km/h 79 % 0.0 in /  0 mm
04:53 7.7 °F /  -13.5 °C 4.2 °F /  -15.4 °C 996.8 in /  33751.6 hPa West 23.3 mph /  37.5 km/h 31.4 mph /  50.5 km/h 79 % 0.0 in /  0 mm
04:57 7.7 °F /  -13.5 °C 4.2 °F /  -15.4 °C 996.8 in /  33751.6 hPa WSW 20.1 mph /  32.3 km/h 31.7 mph /  51 km/h 79 % 0.0 in /  0 mm
05:03 7.6 °F /  -13.6 °C 4.1 °F /  -15.5 °C 996.8 in /  33751.6 hPa West 19.8 mph /  31.9 km/h 31.7 mph /  51 km/h 79 % 0.0 in /  0 mm
05:08 7.6 °F /  -13.6 °C 4.3 °F /  -15.4 °C 996.2 in /  33731.3 hPa West 16.6 mph /  26.7 km/h 24.8 mph /  39.9 km/h 80 % 0.0 in /  0 mm
05:13 7.4 °F /  -13.7 °C 4.2 °F /  -15.4 °C 996.2 in /  33731.3 hPa WSW 16.3 mph /  26.2 km/h 31.4 mph /  50.5 km/h 80 % 0.0 in /  0 mm
05:18 7.4 °F /  -13.7 °C 4.4 °F /  -15.3 °C 996.2 in /  33731.3 hPa West 13.0 mph /  20.9 km/h 31.4 mph /  50.5 km/h 81 % 0.0 in /  0 mm
05:23 7.3 °F /  -13.7 °C 4.3 °F /  -15.4 °C 996.8 in /  33751.6 hPa West 8.7 mph /  14 km/h 24.5 mph /  39.4 km/h 81 % 0.0 in /  0 mm
05:27 7.3 °F /  -13.7 °C 4.3 °F /  -15.4 °C 996.8 in /  33751.6 hPa West 20.9 mph /  33.6 km/h 23.0 mph /  37 km/h 81 % 0.0 in /  0 mm
05:33 7.3 °F /  -13.7 °C 4.5 °F /  -15.3 °C 996.8 in /  33751.6 hPa West 12.2 mph /  19.6 km/h 23.0 mph /  37 km/h 82 % 0.0 in /  0 mm
05:38 7.3 °F /  -13.7 °C 4.7 °F /  -15.2 °C 997.9 in /  33788.9 hPa West 37.0 mph /  59.5 km/h 37.0 mph /  59.5 km/h 83 % 0.0 in /  0 mm
05:42 7.3 °F /  -13.7 °C 4.6 °F /  -15.2 °C 997.9 in /  33788.9 hPa WSW 17.2 mph /  27.7 km/h 37.0 mph /  59.5 km/h 83 % 0.0 in /  0 mm
05:48 7.3 °F /  -13.7 °C 4.7 °F /  -15.2 °C 997.9 in /  33788.9 hPa SW 23.8 mph /  38.3 km/h 38.5 mph /  62 km/h 84 % 0.0 in /  0 mm
05:53 7.2 °F /  -13.8 °C 4.8 °F /  -15.1 °C 997.9 in /  33788.9 hPa West 16.6 mph /  26.7 km/h 38.5 mph /  62 km/h 85 % 0.0 in /  0 mm
05:58 7.2 °F /  -13.8 °C 4.9 °F /  -15.1 °C 997.9 in /  33788.9 hPa West 28.0 mph /  45.1 km/h 28.0 mph /  45.1 km/h 86 % 0.3 in /  7.62 mm
06:03 7.2 °F /  -13.8 °C 5.1 °F /  -14.9 °C 997.9 in /  33788.9 hPa West 19.5 mph /  31.4 km/h 36.0 mph /  57.9 km/h 87 % 0.3 in /  7.62 mm
06:08 7.2 °F /  -13.8 °C 5.1 °F /  -14.9 °C 997.9 in /  33788.9 hPa West 20.1 mph /  32.3 km/h 36.0 mph /  57.9 km/h 87 % 0.3 in /  7.62 mm
06:13 7.2 °F /  -13.8 °C 5.3 °F /  -14.8 °C 997.9 in /  33788.9 hPa SW 20.6 mph /  33.2 km/h 28.5 mph /  45.9 km/h 88 % 0.3 in /  7.62 mm
06:18 7.2 °F /  -13.8 °C 5.6 °F /  -14.7 °C 997.9 in /  33788.9 hPa West 16.6 mph /  26.7 km/h 32.8 mph /  52.8 km/h 90 % 0.3 in /  7.62 mm
06:23 7.2 °F /  -13.8 °C 5.6 °F /  -14.7 °C 998.9 in /  33822.8 hPa West 16.6 mph /  26.7 km/h 32.8 mph /  52.8 km/h 90 % 0.3 in /  7.62 mm
06:28 7.1 °F /  -13.8 °C 5.5 °F /  -14.7 °C 998.9 in /  33822.8 hPa West 20.9 mph /  33.6 km/h 32.8 mph /  52.8 km/h 90 % 0.3 in /  7.62 mm
06:33 6.9 °F /  -13.9 °C 5.3 °F /  -14.8 °C 998.9 in /  33822.8 hPa West 12.2 mph /  19.6 km/h 27.0 mph /  43.5 km/h 89 % 0.5 in /  12.7 mm
06:38 6.8 °F /  -14 °C 5.2 °F /  -14.9 °C 998.9 in /  33822.8 hPa West 16.6 mph /  26.7 km/h 22.7 mph /  36.5 km/h 89 % 0.5 in /  12.7 mm
06:43 6.8 °F /  -14 °C 5.2 °F /  -14.9 °C 998.9 in /  33822.8 hPa WSW 16.9 mph /  27.2 km/h 22.4 mph /  36 km/h 89 % 0.5 in /  12.7 mm
06:48 6.8 °F /  -14 °C 5.3 °F /  -14.8 °C 998.9 in /  33822.8 hPa WSW 17.7 mph /  28.5 km/h 22.7 mph /  36.5 km/h 90 % 0.5 in /  12.7 mm
06:53 6.8 °F /  -14 °C 5.5 °F /  -14.7 °C 998.9 in /  33822.8 hPa West 20.9 mph /  33.6 km/h 22.7 mph /  36.5 km/h 91 % 0.5 in /  12.7 mm
06:58 6.8 °F /  -14 °C 5.5 °F /  -14.7 °C 998.9 in /  33822.8 hPa West 22.7 mph /  36.5 km/h 23.8 mph /  38.3 km/h 91 % 0.3 in /  7.62 mm
07:03 6.8 °F /  -14 °C 5.5 °F /  -14.7 °C 998.9 in /  33822.8 hPa West 24.8 mph /  39.9 km/h 24.8 mph /  39.9 km/h 91 % 0.3 in /  7.62 mm
07:08 6.9 °F /  -13.9 °C 5.4 °F /  -14.8 °C 998.9 in /  33822.8 hPa WSW 20.1 mph /  32.3 km/h 24.8 mph /  39.9 km/h 90 % 0.3 in /  7.62 mm
07:13 6.9 °F /  -13.9 °C 5.4 °F /  -14.8 °C 998.9 in /  33822.8 hPa West 27.0 mph /  43.5 km/h 27.0 mph /  43.5 km/h 90 % 0.3 in /  7.62 mm
07:18 6.9 °F /  -13.9 °C 5.1 °F /  -14.9 °C 998.9 in /  33822.8 hPa WSW 21.2 mph /  34.1 km/h 27.0 mph /  43.5 km/h 88 % 0.3 in /  7.62 mm
07:23 6.9 °F /  -13.9 °C 4.9 °F /  -15.1 °C 998.9 in /  33822.8 hPa West 24.5 mph /  39.4 km/h 27.0 mph /  43.5 km/h 87 % 0.3 in /  7.62 mm
07:28 6.8 °F /  -14 °C 4.8 °F /  -15.1 °C 998.9 in /  33822.8 hPa West 16.9 mph /  27.2 km/h 27.4 mph /  44.1 km/h 87 % 0.0 in /  0 mm
07:33 6.8 °F /  -14 °C 4.8 °F /  -15.1 °C 998.9 in /  33822.8 hPa WSW 16.3 mph /  26.2 km/h 28.0 mph /  45.1 km/h 87 % 0.0 in /  0 mm
07:38 6.8 °F /  -14 °C 4.7 °F /  -15.2 °C 998.9 in /  33822.8 hPa West 17.7 mph /  28.5 km/h 28.0 mph /  45.1 km/h 87 % 0.0 in /  0 mm
07:43 6.8 °F /  -14 °C 4.8 °F /  -15.1 °C 998.9 in /  33822.8 hPa West 21.2 mph /  34.1 km/h 28.5 mph /  45.9 km/h 87 % 0.0 in /  0 mm
07:48 6.8 °F /  -14 °C 4.8 °F /  -15.1 °C 998.9 in /  33822.8 hPa WSW 19.5 mph /  31.4 km/h 28.5 mph /  45.9 km/h 87 % 0.0 in /  0 mm
07:53 6.8 °F /  -14 °C 5.0 °F /  -15 °C 998.9 in /  33822.8 hPa West 14.8 mph /  23.8 km/h 24.8 mph /  39.9 km/h 88 % 0.0 in /  0 mm
07:58 6.8 °F /  -14 °C 5.0 °F /  -15 °C 998.9 in /  33822.8 hPa WSW 13.0 mph /  20.9 km/h 24.8 mph /  39.9 km/h 88 % 0.0 in /  0 mm
08:03 6.8 °F /  -14 °C 4.9 °F /  -15.1 °C 998.9 in /  33822.8 hPa WNW 11.9 mph /  19.2 km/h 20.6 mph /  33.2 km/h 88 % 0.0 in /  0 mm
08:08 6.8 °F /  -14 °C 4.9 °F /  -15.1 °C 998.9 in /  33822.8 hPa West 7.9 mph /  12.7 km/h 15.8 mph /  25.4 km/h 88 % 0.0 in /  0 mm
08:13 6.7 °F /  -14.1 °C 4.8 °F /  -15.1 °C 998.9 in /  33822.8 hPa West 13.7 mph /  22 km/h 15.4 mph /  24.8 km/h 88 % 0.0 in /  0 mm
08:18 6.8 °F /  -14 °C 5.1 °F /  -14.9 °C 998.9 in /  33822.8 hPa West 11.9 mph /  19.2 km/h 16.6 mph /  26.7 km/h 89 % 0.0 in /  0 mm
08:23 6.8 °F /  -14 °C 5.2 °F /  -14.9 °C 998.9 in /  33822.8 hPa West 13.7 mph /  22 km/h 16.6 mph /  26.7 km/h 89 % 0.0 in /  0 mm
08:28 6.9 °F /  -13.9 °C 5.3 °F /  -14.8 °C 998.9 in /  33822.8 hPa West 9.3 mph /  15 km/h 14.3 mph /  23 km/h 89 % 0.0 in /  0 mm
08:33 6.9 °F /  -13.9 °C 5.3 °F /  -14.8 °C 998.9 in /  33822.8 hPa West 9.7 mph /  15.6 km/h 14.0 mph /  22.5 km/h 89 % 0.0 in /  0 mm
08:38 7.1 °F /  -13.8 °C 5.4 °F /  -14.8 °C 999.9 in /  33856.6 hPa WSW 10.5 mph /  16.9 km/h 14.0 mph /  22.5 km/h 89 % 0.0 in /  0 mm
08:43 7.2 °F /  -13.8 °C 5.4 °F /  -14.8 °C 999.9 in /  33856.6 hPa WSW 15.8 mph /  25.4 km/h 17.7 mph /  28.5 km/h 89 % 0.0 in /  0 mm
08:48 7.2 °F /  -13.8 °C 5.4 °F /  -14.8 °C 999.9 in /  33856.6 hPa West 13.0 mph /  20.9 km/h 20.1 mph /  32.3 km/h 89 % 0.0 in /  0 mm
08:53 7.3 °F /  -13.7 °C 5.6 °F /  -14.7 °C 999.9 in /  33856.6 hPa WSW 13.7 mph /  22 km/h 20.1 mph /  32.3 km/h 89 % 0.0 in /  0 mm
08:58 7.3 °F /  -13.7 °C 5.6 °F /  -14.7 °C 999.9 in /  33856.6 hPa West 13.0 mph /  20.9 km/h 18.3 mph /  29.5 km/h 89 % 0.0 in /  0 mm
09:03 7.3 °F /  -13.7 °C 5.5 °F /  -14.7 °C 999.9 in /  33856.6 hPa WSW 11.1 mph /  17.9 km/h 17.7 mph /  28.5 km/h 88 % 0.0 in /  0 mm
09:08 7.4 °F /  -13.7 °C 5.6 °F /  -14.7 °C 1000.9 in /  33890.5 hPa WSW 12.2 mph /  19.6 km/h 17.7 mph /  28.5 km/h 88 % 0.0 in /  0 mm
09:13 7.6 °F /  -13.6 °C 5.8 °F /  -14.6 °C 1000.9 in /  33890.5 hPa WSW 12.6 mph /  20.3 km/h 15.4 mph /  24.8 km/h 89 % 0.0 in /  0 mm
09:18 7.6 °F /  -13.6 °C 5.8 °F /  -14.6 °C 1000.9 in /  33890.5 hPa WSW 17.7 mph /  28.5 km/h 18.0 mph /  29 km/h 89 % 0.0 in /  0 mm
09:23 7.7 °F /  -13.5 °C 5.8 °F /  -14.6 °C 1000.9 in /  33890.5 hPa WSW 10.1 mph /  16.3 km/h 18.0 mph /  29 km/h 88 % 0.0 in /  0 mm
09:28 7.7 °F /  -13.5 °C 5.9 °F /  -14.5 °C 1000.9 in /  33890.5 hPa WSW 10.5 mph /  16.9 km/h 17.7 mph /  28.5 km/h 88 % 0.0 in /  0 mm
09:33 7.8 °F /  -13.4 °C 5.8 °F /  -14.6 °C 1000.9 in /  33890.5 hPa WSW 17.2 mph /  27.7 km/h 17.7 mph /  28.5 km/h 87 % 0.0 in /  0 mm
09:38 7.8 °F /  -13.4 °C 5.7 °F /  -14.6 °C 1000.9 in /  33890.5 hPa WSW 14.0 mph /  22.5 km/h 19.8 mph /  31.9 km/h 86 % 0.0 in /  0 mm
09:43 7.9 °F /  -13.4 °C 5.7 °F /  -14.6 °C 1000.9 in /  33890.5 hPa WSW 17.7 mph /  28.5 km/h 21.6 mph /  34.8 km/h 86 % 0.0 in /  0 mm
09:48 8.1 °F /  -13.3 °C 5.7 °F /  -14.6 °C 1000.9 in /  33890.5 hPa WSW 21.6 mph /  34.8 km/h 21.6 mph /  34.8 km/h 85 % 0.0 in /  0 mm
09:53 8.1 °F /  -13.3 °C 5.8 °F /  -14.6 °C 1000.9 in /  33890.5 hPa WSW 16.6 mph /  26.7 km/h 21.6 mph /  34.8 km/h 85 % 0.0 in /  0 mm
09:58 8.2 °F /  -13.2 °C 5.7 °F /  -14.6 °C 1000.9 in /  33890.5 hPa WSW 15.1 mph /  24.3 km/h 21.6 mph /  34.8 km/h 84 % 0.0 in /  0 mm
10:03 8.4 °F /  -13.1 °C 5.9 °F /  -14.5 °C 1000.9 in /  33890.5 hPa SW 15.4 mph /  24.8 km/h 23.0 mph /  37 km/h 84 % 0.0 in /  0 mm
10:04 8.4 °F /  -13.1 °C 5.9 °F /  -14.5 °C 1000.9 in /  33890.5 hPa SW 15.4 mph /  24.8 km/h 23.0 mph /  37 km/h 84 % 0.0 in /  0 mm
10:09 8.5 °F /  -13.1 °C 5.8 °F /  -14.6 °C 999.9 in /  33856.6 hPa West 14.0 mph /  22.5 km/h 23.8 mph /  38.3 km/h 83 % 0.0 in /  0 mm
10:14 8.7 °F /  -12.9 °C 6.0 °F /  -14.4 °C 999.9 in /  33856.6 hPa WSW 15.8 mph /  25.4 km/h 23.8 mph /  38.3 km/h 83 % 0.0 in /  0 mm
10:19 8.8 °F /  -12.9 °C 5.9 °F /  -14.5 °C 999.9 in /  33856.6 hPa WSW 16.6 mph /  26.7 km/h 20.9 mph /  33.6 km/h 82 % 0.0 in /  0 mm
10:24 8.9 °F /  -12.8 °C 6.0 °F /  -14.4 °C 1000.9 in /  33890.5 hPa WSW 14.0 mph /  22.5 km/h 20.9 mph /  33.6 km/h 82 % 0.0 in /  0 mm
10:29 9.0 °F /  -12.8 °C 5.9 °F /  -14.5 °C 1000.9 in /  33890.5 hPa WSW 19.8 mph /  31.9 km/h 28.5 mph /  45.9 km/h 81 % 0.0 in /  0 mm
10:34 9.0 °F /  -12.8 °C 5.7 °F /  -14.6 °C 1000.9 in /  33890.5 hPa WSW 14.0 mph /  22.5 km/h 28.5 mph /  45.9 km/h 80 % 0.0 in /  0 mm
10:39 9.0 °F /  -12.8 °C 5.7 °F /  -14.6 °C 1000.9 in /  33890.5 hPa WSW 21.2 mph /  34.1 km/h 23.8 mph /  38.3 km/h 80 % 0.0 in /  0 mm
10:44 9.1 °F /  -12.7 °C 5.8 °F /  -14.6 °C 1000.9 in /  33890.5 hPa West 16.9 mph /  27.2 km/h 24.5 mph /  39.4 km/h 80 % 0.0 in /  0 mm
10:49 9.0 °F /  -12.8 °C 5.2 °F /  -14.9 °C 1000.9 in /  33890.5 hPa West 24.5 mph /  39.4 km/h 24.8 mph /  39.9 km/h 77 % 0.0 in /  0 mm
10:54 9.1 °F /  -12.7 °C 5.5 °F /  -14.7 °C 1000.9 in /  33890.5 hPa WSW 21.2 mph /  34.1 km/h 24.8 mph /  39.9 km/h 78 % 0.0 in /  0 mm
10:59 9.1 °F /  -12.7 °C 5.5 °F /  -14.7 °C 1000.9 in /  33890.5 hPa WSW 24.5 mph /  39.4 km/h 28.5 mph /  45.9 km/h 78 % 0.0 in /  0 mm
11:04 9.2 °F /  -12.7 °C 5.6 °F /  -14.7 °C 1000.9 in /  33890.5 hPa WSW 16.6 mph /  26.7 km/h 28.5 mph /  45.9 km/h 78 % 0.0 in /  0 mm
11:09 9.3 °F /  -12.6 °C 5.8 °F /  -14.6 °C 1000.9 in /  33890.5 hPa WSW 21.2 mph /  34.1 km/h 24.8 mph /  39.9 km/h 79 % 0.0 in /  0 mm
11:14 9.3 °F /  -12.6 °C 5.8 °F /  -14.6 °C 1000.9 in /  33890.5 hPa West 15.8 mph /  25.4 km/h 24.8 mph /  39.9 km/h 79 % 0.0 in /  0 mm
11:19 9.3 °F /  -12.6 °C 5.8 °F /  -14.6 °C 1000.9 in /  33890.5 hPa WSW 16.6 mph /  26.7 km/h 25.6 mph /  41.2 km/h 79 % 0.0 in /  0 mm
11:24 9.3 °F /  -12.6 °C 6.1 °F /  -14.4 °C 1000.9 in /  33890.5 hPa WSW 17.7 mph /  28.5 km/h 25.6 mph /  41.2 km/h 80 % 0.0 in /  0 mm
11:29 9.4 °F /  -12.6 °C 6.1 °F /  -14.4 °C 1000.9 in /  33890.5 hPa WSW 13.7 mph /  22 km/h 20.9 mph /  33.6 km/h 80 % 0.0 in /  0 mm
11:34 9.5 °F /  -12.5 °C 6.4 °F /  -14.2 °C 1000.9 in /  33890.5 hPa WSW 11.9 mph /  19.2 km/h 19.5 mph /  31.4 km/h 81 % 0.0 in /  0 mm
11:39 9.7 °F /  -12.4 °C 6.8 °F /  -14 °C 1000.9 in /  33890.5 hPa WSW 12.6 mph /  20.3 km/h 13.7 mph /  22 km/h 82 % 0.0 in /  0 mm
11:44 9.7 °F /  -12.4 °C 6.4 °F /  -14.2 °C 1000.9 in /  33890.5 hPa WSW 21.9 mph /  35.2 km/h 24.8 mph /  39.9 km/h 80 % 0.0 in /  0 mm
11:45 9.7 °F /  -12.4 °C 6.2 °F /  -14.3 °C 1000.9 in /  33890.5 hPa WSW 16.6 mph /  26.7 km/h 24.8 mph /  39.9 km/h 79 % 0.0 in /  0 mm
11:50 9.7 °F /  -12.4 °C 5.7 °F /  -14.6 °C 1000.9 in /  33890.5 hPa SSW 16.3 mph /  26.2 km/h 24.8 mph /  39.9 km/h 76 % 0.0 in /  0 mm
11:55 9.9 °F /  -12.3 °C 5.9 °F /  -14.5 °C 1000.9 in /  33890.5 hPa West 21.2 mph /  34.1 km/h 21.2 mph /  34.1 km/h 76 % 0.0 in /  0 mm
12:00 10.0 °F /  -12.2 °C 5.8 °F /  -14.6 °C 1000.9 in /  33890.5 hPa WSW 20.1 mph /  32.3 km/h 21.2 mph /  34.1 km/h 75 % 0.0 in /  0 mm
12:05 10.1 °F /  -12.2 °C 5.8 °F /  -14.6 °C 1000.9 in /  33890.5 hPa West 16.6 mph /  26.7 km/h 23.0 mph /  37 km/h 75 % 0.0 in /  0 mm
12:10 10.1 °F /  -12.2 °C 5.1 °F /  -14.9 °C 1000.9 in /  33890.5 hPa WSW 17.2 mph /  27.7 km/h 26.2 mph /  42.2 km/h 71 % 0.0 in /  0 mm
12:15 10.0 °F /  -12.2 °C 4.8 °F /  -15.1 °C 1000.9 in /  33890.5 hPa WSW 28.8 mph /  46.3 km/h 28.8 mph /  46.3 km/h 70 % 0.0 in /  0 mm
12:20 10.0 °F /  -12.2 °C 5.2 °F /  -14.9 °C 1000.9 in /  33890.5 hPa WSW 20.9 mph /  33.6 km/h 28.8 mph /  46.3 km/h 72 % 0.0 in /  0 mm
12:25 9.9 °F /  -12.3 °C 4.9 °F /  -15.1 °C 1000.9 in /  33890.5 hPa WSW 24.5 mph /  39.4 km/h 30.9 mph /  49.7 km/h 71 % 0.0 in /  0 mm
12:30 9.9 °F /  -12.3 °C 5.5 °F /  -14.7 °C 1000.9 in /  33890.5 hPa WSW 16.9 mph /  27.2 km/h 30.9 mph /  49.7 km/h 74 % 0.0 in /  0 mm
12:35 9.8 °F /  -12.3 °C 5.6 °F /  -14.7 °C 1000.9 in /  33890.5 hPa SSW 21.2 mph /  34.1 km/h 25.3 mph /  40.7 km/h 75 % 0.0 in /  0 mm
12:40 9.7 °F /  -12.4 °C 6.1 °F /  -14.4 °C 1000.9 in /  33890.5 hPa SW 17.7 mph /  28.5 km/h 27.7 mph /  44.6 km/h 78 % 0.0 in /  0 mm
12:45 9.5 °F /  -12.5 °C 6.1 °F /  -14.4 °C 1000.9 in /  33890.5 hPa WSW 20.1 mph /  32.3 km/h 27.7 mph /  44.6 km/h 79 % 0.0 in /  0 mm
12:50 9.4 °F /  -12.6 °C 6.1 °F /  -14.4 °C 1000.9 in /  33890.5 hPa WSW 17.2 mph /  27.7 km/h 27.7 mph /  44.6 km/h 80 % 0.0 in /  0 mm
12:55 9.3 °F /  -12.6 °C 6.1 °F /  -14.4 °C 1000.9 in /  33890.5 hPa WSW 20.9 mph /  33.6 km/h 24.8 mph /  39.9 km/h 80 % 0.0 in /  0 mm
13:00 9.1 °F /  -12.7 °C 6.0 °F /  -14.4 °C 1000.9 in /  33890.5 hPa WSW 22.7 mph /  36.5 km/h 24.8 mph /  39.9 km/h 81 % 0.0 in /  0 mm
13:05 9.1 °F /  -12.7 °C 6.0 °F /  -14.4 °C 1000.9 in /  33890.5 hPa SW 14.0 mph /  22.5 km/h 24.8 mph /  39.9 km/h 81 % 0.0 in /  0 mm
13:10 9.2 °F /  -12.7 °C 6.1 °F /  -14.4 °C 1000.9 in /  33890.5 hPa WSW 16.9 mph /  27.2 km/h 24.5 mph /  39.4 km/h 81 % 0.0 in /  0 mm
13:15 9.1 °F /  -12.7 °C 6.0 °F /  -14.4 °C 1000.9 in /  33890.5 hPa SW 15.1 mph /  24.3 km/h 23.0 mph /  37 km/h 81 % 0.0 in /  0 mm
13:20 8.9 °F /  -12.8 °C 6.0 °F /  -14.4 °C 1000.9 in /  33890.5 hPa SSW 12.6 mph /  20.3 km/h 23.3 mph /  37.5 km/h 82 % 0.0 in /  0 mm
13:25 8.7 °F /  -12.9 °C 6.2 °F /  -14.3 °C 1000.9 in /  33890.5 hPa SW 15.8 mph /  25.4 km/h 26.2 mph /  42.2 km/h 84 % 0.0 in /  0 mm
13:30 8.4 °F /  -13.1 °C 6.1 °F /  -14.4 °C 1000.9 in /  33890.5 hPa SSW 13.0 mph /  20.9 km/h 26.2 mph /  42.2 km/h 85 % 0.0 in /  0 mm
13:35 8.3 °F /  -13.2 °C 6.1 °F /  -14.4 °C 1000.9 in /  33890.5 hPa SW 11.9 mph /  19.2 km/h 14.0 mph /  22.5 km/h 86 % 0.0 in /  0 mm
13:40 8.2 °F /  -13.2 °C 6.2 °F /  -14.3 °C 1000.9 in /  33890.5 hPa SW 7.9 mph /  12.7 km/h 14.0 mph /  22.5 km/h 87 % 0.0 in /  0 mm
13:45 8.2 °F /  -13.2 °C 6.4 °F /  -14.2 °C 1000.9 in /  33890.5 hPa SSW 7.9 mph /  12.7 km/h 14.0 mph /  22.5 km/h 88 % 0.0 in /  0 mm
13:50 8.2 °F /  -13.2 °C 6.5 °F /  -14.2 °C 1000.9 in /  33890.5 hPa SSW 8.7 mph /  14 km/h 11.9 mph /  19.2 km/h 89 % 0.0 in /  0 mm
13:55 8.2 °F /  -13.2 °C 6.5 °F /  -14.2 °C 1000.9 in /  33890.5 hPa SW 5.5 mph /  8.9 km/h 10.5 mph /  16.9 km/h 89 % 0.0 in /  0 mm
14:00 8.3 °F /  -13.2 °C 6.8 °F /  -14 °C 1000.9 in /  33890.5 hPa Calm   10.1 mph /  16.3 km/h 90 % 0.0 in /  0 mm
14:05 8.4 °F /  -13.1 °C 7.1 °F /  -13.8 °C 1000.9 in /  33890.5 hPa WSW 10.5 mph /  16.9 km/h 11.1 mph /  17.9 km/h 91 % 0.0 in /  0 mm
14:10 8.4 °F /  -13.1 °C 7.1 °F /  -13.8 °C 1000.9 in /  33890.5 hPa SW 9.3 mph /  15 km/h 12.6 mph /  20.3 km/h 91 % 0.0 in /  0 mm
14:15 8.5 °F /  -13.1 °C 7.2 °F /  -13.8 °C 1000.9 in /  33890.5 hPa SSW 11.9 mph /  19.2 km/h 19.1 mph /  30.7 km/h 91 % 0.0 in /  0 mm
14:20 8.5 °F /  -13.1 °C 7.2 °F /  -13.8 °C 1000.9 in /  33890.5 hPa SW 20.1 mph /  32.3 km/h 23.8 mph /  38.3 km/h 91 % 0.0 in /  0 mm
14:25 8.6 °F /  -13 °C 7.1 °F /  -13.8 °C 1000.9 in /  33890.5 hPa West 23.3 mph /  37.5 km/h 27.7 mph /  44.6 km/h 90 % 0.0 in /  0 mm
14:30 8.8 °F /  -12.9 °C 7.1 °F /  -13.8 °C 1000.9 in /  33890.5 hPa WSW 16.6 mph /  26.7 km/h 28.0 mph /  45.1 km/h 89 % 0.0 in /  0 mm
14:35 8.8 °F /  -12.9 °C 7.1 °F /  -13.8 °C 1000.9 in /  33890.5 hPa WSW 16.6 mph /  26.7 km/h 24.5 mph /  39.4 km/h 89 % 0.0 in /  0 mm
14:40 8.9 °F /  -12.8 °C 7.1 °F /  -13.8 °C 1000.9 in /  33890.5 hPa SW 14.0 mph /  22.5 km/h 20.6 mph /  33.2 km/h 88 % 0.0 in /  0 mm
14:45 8.9 °F /  -12.8 °C 7.2 °F /  -13.8 °C 1000.9 in /  33890.5 hPa WSW 15.8 mph /  25.4 km/h 19.5 mph /  31.4 km/h 89 % 0.0 in /  0 mm
14:50 8.9 °F /  -12.8 °C 7.2 °F /  -13.8 °C 1000.9 in /  33890.5 hPa WSW 15.1 mph /  24.3 km/h 16.9 mph /  27.2 km/h 89 % 0.0 in /  0 mm
14:55 8.9 °F /  -12.8 °C 7.1 °F /  -13.8 °C 999.9 in /  33856.6 hPa SW 9.0 mph /  14.5 km/h 16.9 mph /  27.2 km/h 88 % 0.0 in /  0 mm
14:56 8.9 °F /  -12.8 °C 7.1 °F /  -13.8 °C 999.9 in /  33856.6 hPa SSW 10.5 mph /  16.9 km/h 16.9 mph /  27.2 km/h 88 % 0.0 in /  0 mm
15:01 8.8 °F /  -12.9 °C 6.9 °F /  -13.9 °C 999.9 in /  33856.6 hPa SW 14.0 mph /  22.5 km/h 20.6 mph /  33.2 km/h 88 % 0.0 in /  0 mm
15:06 8.8 °F /  -12.9 °C 6.9 °F /  -13.9 °C 999.9 in /  33856.6 hPa SW 14.0 mph /  22.5 km/h 23.3 mph /  37.5 km/h 88 % 0.0 in /  0 mm
15:11 8.8 °F /  -12.9 °C 6.9 °F /  -13.9 °C 999.9 in /  33856.6 hPa SW 16.3 mph /  26.2 km/h 23.3 mph /  37.5 km/h 88 % 0.0 in /  0 mm
15:16 8.8 °F /  -12.9 °C 6.9 °F /  -13.9 °C 999.9 in /  33856.6 hPa SSW 11.9 mph /  19.2 km/h 23.0 mph /  37 km/h 88 % 0.0 in /  0 mm
15:21 8.7 °F /  -12.9 °C 6.8 °F /  -14 °C 999.9 in /  33856.6 hPa SSW 13.7 mph /  22 km/h 19.1 mph /  30.7 km/h 88 % 0.0 in /  0 mm
15:26 8.6 °F /  -13 °C 6.6 °F /  -14.1 °C 999.9 in /  33856.6 hPa SW 13.0 mph /  20.9 km/h 19.8 mph /  31.9 km/h 87 % 0.0 in /  0 mm
15:31 8.6 °F /  -13 °C 6.6 °F /  -14.1 °C 999.9 in /  33856.6 hPa South 8.7 mph /  14 km/h 19.8 mph /  31.9 km/h 87 % 0.0 in /  0 mm
15:36 8.5 °F /  -13.1 °C 6.5 °F /  -14.2 °C 999.9 in /  33856.6 hPa South 14.0 mph /  22.5 km/h 19.8 mph /  31.9 km/h 87 % 0.0 in /  0 mm
15:41 8.5 °F /  -13.1 °C 6.3 °F /  -14.3 °C 999.9 in /  33856.6 hPa SW 15.8 mph /  25.4 km/h 20.6 mph /  33.2 km/h 86 % 0.0 in /  0 mm
15:46 8.5 °F /  -13.1 °C 6.3 °F /  -14.3 °C 999.9 in /  33856.6 hPa SSW 6.9 mph /  11.1 km/h 21.2 mph /  34.1 km/h 86 % 0.0 in /  0 mm
15:51 8.4 °F /  -13.1 °C 6.2 °F /  -14.3 °C 999.9 in /  33856.6 hPa SSW 5.8 mph /  9.3 km/h 21.2 mph /  34.1 km/h 86 % 0.0 in /  0 mm
15:56 8.3 °F /  -13.2 °C 6.1 °F /  -14.4 °C 998.9 in /  33822.8 hPa SSW 10.1 mph /  16.3 km/h 17.2 mph /  27.7 km/h 86 % 0.0 in /  0 mm
16:01 8.3 °F /  -13.2 °C 5.9 °F /  -14.5 °C 998.9 in /  33822.8 hPa SSE 9.3 mph /  15 km/h 17.2 mph /  27.7 km/h 85 % 0.0 in /  0 mm
16:06 8.3 °F /  -13.2 °C 5.9 °F /  -14.5 °C 998.9 in /  33822.8 hPa South 10.5 mph /  16.9 km/h 17.2 mph /  27.7 km/h 85 % 0.0 in /  0 mm
16:11 8.3 °F /  -13.2 °C 6.1 °F /  -14.4 °C 998.9 in /  33822.8 hPa South 9.3 mph /  15 km/h 16.3 mph /  26.2 km/h 86 % 0.0 in /  0 mm
16:16 8.3 °F /  -13.2 °C 6.1 °F /  -14.4 °C 998.9 in /  33822.8 hPa SSW 6.4 mph /  10.3 km/h 17.2 mph /  27.7 km/h 86 % 0.0 in /  0 mm
16:21 8.2 °F /  -13.2 °C 6.0 °F /  -14.4 °C 998.9 in /  33822.8 hPa SSW 8.7 mph /  14 km/h 17.2 mph /  27.7 km/h 86 % 0.0 in /  0 mm
16:26 8.3 °F /  -13.2 °C 6.3 °F /  -14.3 °C 997.9 in /  33788.9 hPa South 14.0 mph /  22.5 km/h 14.0 mph /  22.5 km/h 87 % 0.0 in /  0 mm
16:31 8.3 °F /  -13.2 °C 6.3 °F /  -14.3 °C 997.9 in /  33788.9 hPa South 9.7 mph /  15.6 km/h 14.8 mph /  23.8 km/h 87 % 0.0 in /  0 mm
16:36 8.3 °F /  -13.2 °C 6.3 °F /  -14.3 °C 997.9 in /  33788.9 hPa South 10.5 mph /  16.9 km/h 15.8 mph /  25.4 km/h 87 % 0.0 in /  0 mm
16:41 8.2 °F /  -13.2 °C 6.2 °F /  -14.3 °C 998.9 in /  33822.8 hPa South 8.7 mph /  14 km/h 15.8 mph /  25.4 km/h 87 % 0.0 in /  0 mm
16:46 8.2 °F /  -13.2 °C 6.2 °F /  -14.3 °C 998.9 in /  33822.8 hPa SSW 10.8 mph /  17.4 km/h 13.7 mph /  22 km/h 87 % 0.0 in /  0 mm
16:51 8.2 °F /  -13.2 °C 6.4 °F /  -14.2 °C 998.9 in /  33822.8 hPa SSE 9.7 mph /  15.6 km/h 14.0 mph /  22.5 km/h 88 % 0.0 in /  0 mm
16:56 8.1 °F /  -13.3 °C 6.3 °F /  -14.3 °C 998.9 in /  33822.8 hPa SSE 7.9 mph /  12.7 km/h 15.8 mph /  25.4 km/h 88 % 0.0 in /  0 mm
17:01 7.9 °F /  -13.4 °C 6.1 °F /  -14.4 °C 998.9 in /  33822.8 hPa SE 9.3 mph /  15 km/h 15.8 mph /  25.4 km/h 88 % 0.0 in /  0 mm
17:06 7.8 °F /  -13.4 °C 6.2 °F /  -14.3 °C 998.9 in /  33822.8 hPa South 3.2 mph /  5.1 km/h 15.8 mph /  25.4 km/h 89 % 0.0 in /  0 mm
17:11 7.7 °F /  -13.5 °C 6.2 °F /  -14.3 °C 997.9 in /  33788.9 hPa SSW 9.0 mph /  14.5 km/h 13.7 mph /  22 km/h 90 % 0.0 in /  0 mm
17:16 7.7 °F /  -13.5 °C 6.4 °F /  -14.2 °C 997.9 in /  33788.9 hPa SSE 5.5 mph /  8.9 km/h 13.0 mph /  20.9 km/h 91 % 0.0 in /  0 mm
17:21 7.7 °F /  -13.5 °C 6.4 °F /  -14.2 °C 997.9 in /  33788.9 hPa SSE 9.7 mph /  15.6 km/h 16.9 mph /  27.2 km/h 92 % 0.0 in /  0 mm
17:26 7.6 °F /  -13.6 °C 6.5 °F /  -14.2 °C 997.9 in /  33788.9 hPa Calm   16.9 mph /  27.2 km/h 93 % 0.0 in /  0 mm
17:31 7.6 °F /  -13.6 °C 6.5 °F /  -14.2 °C 997.9 in /  33788.9 hPa ESE 1.4 mph /  2.3 km/h 12.2 mph /  19.6 km/h 93 % 0.0 in /  0 mm
17:36 7.6 °F /  -13.6 °C 6.7 °F /  -14.1 °C 997.9 in /  33788.9 hPa SSE 3.5 mph /  5.6 km/h 9.0 mph /  14.5 km/h 94 % 0.3 in /  7.62 mm
17:41 7.4 °F /  -13.7 °C 6.6 °F /  -14.1 °C 997.9 in /  33788.9 hPa SSE 9.7 mph /  15.6 km/h 9.7 mph /  15.6 km/h 94 % 0.3 in /  7.62 mm
17:46 7.4 °F /  -13.7 °C 6.7 °F /  -14.1 °C 997.9 in /  33788.9 hPa SSE 2.1 mph /  3.4 km/h 13.0 mph /  20.9 km/h 95 % 0.3 in /  7.62 mm
17:51 7.4 °F /  -13.7 °C 6.7 °F /  -14.1 °C 997.9 in /  33788.9 hPa SSE 6.1 mph /  9.8 km/h 15.8 mph /  25.4 km/h 95 % 0.3 in /  7.62 mm
17:56 7.3 °F /  -13.7 °C 6.6 °F /  -14.1 °C 997.9 in /  33788.9 hPa South 5.5 mph /  8.9 km/h 15.8 mph /  25.4 km/h 95 % 0.3 in /  7.62 mm
18:01 7.3 °F /  -13.7 °C 6.6 °F /  -14.1 °C 997.9 in /  33788.9 hPa SSE 10.1 mph /  16.3 km/h 13.0 mph /  20.9 km/h 95 % 0.3 in /  7.62 mm
18:06 7.3 °F /  -13.7 °C 6.8 °F /  -14 °C 997.9 in /  33788.9 hPa South 9.0 mph /  14.5 km/h 15.8 mph /  25.4 km/h 96 % 0.3 in /  7.62 mm
18:11 7.3 °F /  -13.7 °C 6.8 °F /  -14 °C 996.8 in /  33751.6 hPa SSE 10.1 mph /  16.3 km/h 16.9 mph /  27.2 km/h 96 % 0.3 in /  7.62 mm
18:16 7.3 °F /  -13.7 °C 6.7 °F /  -14.1 °C 996.8 in /  33751.6 hPa SSE 2.1 mph /  3.4 km/h 16.9 mph /  27.2 km/h 96 % 0.8 in /  20.32 mm
18:21 7.3 °F /  -13.7 °C 6.7 °F /  -14.1 °C 996.8 in /  33751.6 hPa SSE 4.7 mph /  7.6 km/h 16.3 mph /  26.2 km/h 96 % 0.8 in /  20.32 mm
18:26 7.3 °F /  -13.7 °C 6.7 °F /  -14.1 °C 996.8 in /  33751.6 hPa South 5.0 mph /  8 km/h 10.5 mph /  16.9 km/h 96 % 0.8 in /  20.32 mm
18:31 7.3 °F /  -13.7 °C 6.7 °F /  -14.1 °C 996.8 in /  33751.6 hPa SSE 1.4 mph /  2.3 km/h 9.7 mph /  15.6 km/h 96 % 0.8 in /  20.32 mm
18:36 7.3 °F /  -13.7 °C 6.8 °F /  -14 °C 996.8 in /  33751.6 hPa SSE 5.5 mph /  8.9 km/h 6.9 mph /  11.1 km/h 97 % 0.3 in /  7.62 mm
18:41 7.3 °F /  -13.7 °C 6.8 °F /  -14 °C 996.8 in /  33751.6 hPa Calm   7.6 mph /  12.2 km/h 97 % 0.3 in /  7.62 mm
18:46 7.3 °F /  -13.7 °C 6.8 °F /  -14 °C 996.8 in /  33751.6 hPa South 4.0 mph /  6.4 km/h 9.7 mph /  15.6 km/h 97 % 0.3 in /  7.62 mm
18:51 7.3 °F /  -13.7 °C 6.8 °F /  -14 °C 996.8 in /  33751.6 hPa SSE 4.7 mph /  7.6 km/h 10.5 mph /  16.9 km/h 97 % 0.3 in /  7.62 mm
18:56 7.3 °F /  -13.7 °C 6.9 °F /  -13.9 °C 996.8 in /  33751.6 hPa South 11.9 mph /  19.2 km/h 13.7 mph /  22 km/h 97 % 0.3 in /  7.62 mm
19:01 7.3 °F /  -13.7 °C 6.9 °F /  -13.9 °C 996.8 in /  33751.6 hPa SW 6.1 mph /  9.8 km/h 13.7 mph /  22 km/h 97 % 0.3 in /  7.62 mm
19:06 7.4 °F /  -13.7 °C 7.0 °F /  -13.9 °C 996.8 in /  33751.6 hPa SW 5.0 mph /  8 km/h 11.6 mph /  18.7 km/h 97 % 0.3 in /  7.62 mm
19:11 7.4 °F /  -13.7 °C 7.0 °F /  -13.9 °C 996.8 in /  33751.6 hPa SSE 4.3 mph /  6.9 km/h 6.4 mph /  10.3 km/h 97 % 0.0 in /  0 mm
19:12 7.4 °F /  -13.7 °C 7.0 °F /  -13.9 °C 996.8 in /  33751.6 hPa SSW 5.5 mph /  8.9 km/h 6.4 mph /  10.3 km/h 97 % 0.0 in /  0 mm
19:17 7.6 °F /  -13.6 °C 7.1 °F /  -13.8 °C 996.8 in /  33751.6 hPa SSW 6.4 mph /  10.3 km/h 9.7 mph /  15.6 km/h 97 % 0.3 in /  7.62 mm
19:22 7.6 °F /  -13.6 °C 7.1 °F /  -13.8 °C 996.8 in /  33751.6 hPa Calm   9.7 mph /  15.6 km/h 97 % 0.3 in /  7.62 mm
19:27 7.7 °F /  -13.5 °C 7.3 °F /  -13.7 °C 996.8 in /  33751.6 hPa South 5.8 mph /  9.3 km/h 10.1 mph /  16.3 km/h 98 % 0.3 in /  7.62 mm
19:32 7.7 °F /  -13.5 °C 7.3 °F /  -13.7 °C 996.8 in /  33751.6 hPa SSW 9.7 mph /  15.6 km/h 12.2 mph /  19.6 km/h 98 % 0.3 in /  7.62 mm
19:37 7.9 °F /  -13.4 °C 7.5 °F /  -13.6 °C 996.2 in /  33731.3 hPa SW 10.5 mph /  16.9 km/h 13.7 mph /  22 km/h 97 % 0.3 in /  7.62 mm
19:42 7.9 °F /  -13.4 °C 7.5 °F /  -13.6 °C 996.2 in /  33731.3 hPa WSW 7.9 mph /  12.7 km/h 13.7 mph /  22 km/h 97 % 0.3 in /  7.62 mm
19:47 8.1 °F /  -13.3 °C 7.7 °F /  -13.5 °C 996.2 in /  33731.3 hPa WSW 9.3 mph /  15 km/h 15.1 mph /  24.3 km/h 98 % 0.3 in /  7.62 mm
19:52 8.1 °F /  -13.3 °C 7.8 °F /  -13.4 °C 996.8 in /  33751.6 hPa WSW 14.0 mph /  22.5 km/h 17.2 mph /  27.7 km/h 98 % 0.3 in /  7.62 mm
19:57 8.2 °F /  -13.2 °C 7.9 °F /  -13.4 °C 996.8 in /  33751.6 hPa WSW 13.0 mph /  20.9 km/h 17.2 mph /  27.7 km/h 98 % 0.3 in /  7.62 mm
20:02 8.3 °F /  -13.2 °C 8.1 °F /  -13.3 °C 996.8 in /  33751.6 hPa West 27.7 mph /  44.6 km/h 27.7 mph /  44.6 km/h 98 % 0.3 in /  7.62 mm
20:07 8.4 °F /  -13.1 °C 8.1 °F /  -13.3 °C 996.2 in /  33731.3 hPa West 17.7 mph /  28.5 km/h 27.7 mph /  44.6 km/h 98 % 0.3 in /  7.62 mm
20:12 8.6 °F /  -13 °C 8.3 °F /  -13.2 °C 996.2 in /  33731.3 hPa West 16.6 mph /  26.7 km/h 27.0 mph /  43.5 km/h 98 % 0.3 in /  7.62 mm
20:17 8.6 °F /  -13 °C 8.3 °F /  -13.2 °C 996.2 in /  33731.3 hPa West 15.4 mph /  24.8 km/h 27.0 mph /  43.5 km/h 98 % 0.0 in /  0 mm
20:22 8.7 °F /  -12.9 °C 8.4 °F /  -13.1 °C 996.8 in /  33751.6 hPa West 10.1 mph /  16.3 km/h 23.8 mph /  38.3 km/h 98 % 0.0 in /  0 mm
20:27 8.7 °F /  -12.9 °C 8.4 °F /  -13.1 °C 996.8 in /  33751.6 hPa West 20.1 mph /  32.3 km/h 21.2 mph /  34.1 km/h 98 % 0.0 in /  0 mm
20:32 8.8 °F /  -12.9 °C 8.5 °F /  -13.1 °C 996.8 in /  33751.6 hPa West 16.9 mph /  27.2 km/h 20.6 mph /  33.2 km/h 98 % 0.0 in /  0 mm
20:37 8.8 °F /  -12.9 °C 8.5 °F /  -13.1 °C 996.8 in /  33751.6 hPa West 16.6 mph /  26.7 km/h 21.2 mph /  34.1 km/h 98 % 0.0 in /  0 mm
20:42 8.8 °F /  -12.9 °C 8.5 °F /  -13.1 °C 996.8 in /  33751.6 hPa West 14.0 mph /  22.5 km/h 21.2 mph /  34.1 km/h 98 % 0.0 in /  0 mm
20:47 8.8 °F /  -12.9 °C 8.5 °F /  -13.1 °C 996.8 in /  33751.6 hPa West 14.0 mph /  22.5 km/h 23.8 mph /  38.3 km/h 98 % 0.0 in /  0 mm
20:52 8.7 °F /  -12.9 °C 8.4 °F /  -13.1 °C 997.9 in /  33788.9 hPa WSW 19.8 mph /  31.9 km/h 23.8 mph /  38.3 km/h 98 % 0.0 in /  0 mm
20:57 8.7 °F /  -12.9 °C 8.4 °F /  -13.1 °C 997.9 in /  33788.9 hPa West 26.2 mph /  42.2 km/h 27.7 mph /  44.6 km/h 98 % 0.0 in /  0 mm
21:02 8.7 °F /  -12.9 °C 8.4 °F /  -13.1 °C 997.9 in /  33788.9 hPa West 19.1 mph /  30.7 km/h 27.7 mph /  44.6 km/h 98 % 0.0 in /  0 mm
21:07 8.7 °F /  -12.9 °C 8.4 °F /  -13.1 °C 997.9 in /  33788.9 hPa West 23.3 mph /  37.5 km/h 27.4 mph /  44.1 km/h 98 % 0.0 in /  0 mm
21:12 8.7 °F /  -12.9 °C 8.4 °F /  -13.1 °C 997.9 in /  33788.9 hPa WSW 24.5 mph /  39.4 km/h 28.0 mph /  45.1 km/h 98 % 0.0 in /  0 mm
21:17 8.7 °F /  -12.9 °C 8.4 °F /  -13.1 °C 997.9 in /  33788.9 hPa West 13.7 mph /  22 km/h 28.0 mph /  45.1 km/h 98 % 0.0 in /  0 mm
21:22 8.6 °F /  -13 °C 8.3 °F /  -13.2 °C 997.9 in /  33788.9 hPa West 16.3 mph /  26.2 km/h 27.7 mph /  44.6 km/h 98 % 0.0 in /  0 mm
21:27 8.5 °F /  -13.1 °C 8.2 °F /  -13.2 °C 997.9 in /  33788.9 hPa SW 12.2 mph /  19.6 km/h 24.8 mph /  39.9 km/h 98 % 0.0 in /  0 mm
21:32 8.4 °F /  -13.1 °C 8.0 °F /  -13.3 °C 997.9 in /  33788.9 hPa NNE 19.8 mph /  31.9 km/h 24.8 mph /  39.9 km/h 97 % 0.0 in /  0 mm
21:37 8.4 °F /  -13.1 °C 8.0 °F /  -13.3 °C 997.9 in /  33788.9 hPa West 20.6 mph /  33.2 km/h 21.2 mph /  34.1 km/h 97 % 0.0 in /  0 mm
21:42 8.3 °F /  -13.2 °C 7.9 °F /  -13.4 °C 997.9 in /  33788.9 hPa West 9.3 mph /  15 km/h 20.6 mph /  33.2 km/h 97 % 0.0 in /  0 mm
21:47 8.3 °F /  -13.2 °C 7.9 °F /  -13.4 °C 997.9 in /  33788.9 hPa WSW 13.0 mph /  20.9 km/h 20.6 mph /  33.2 km/h 97 % 0.0 in /  0 mm
21:52 8.3 °F /  -13.2 °C 7.9 °F /  -13.4 °C 998.9 in /  33822.8 hPa WSW 10.1 mph /  16.3 km/h 20.6 mph /  33.2 km/h 97 % 0.0 in /  0 mm
21:57 8.3 °F /  -13.2 °C 7.9 °F /  -13.4 °C 998.9 in /  33822.8 hPa WSW 16.9 mph /  27.2 km/h 19.5 mph /  31.4 km/h 97 % 0.0 in /  0 mm
22:02 8.2 °F /  -13.2 °C 7.8 °F /  -13.4 °C 998.9 in /  33822.8 hPa WSW 11.9 mph /  19.2 km/h 19.5 mph /  31.4 km/h 97 % 0.0 in /  0 mm
22:07 8.2 °F /  -13.2 °C 7.8 °F /  -13.4 °C 998.9 in /  33822.8 hPa WSW 11.9 mph /  19.2 km/h 16.6 mph /  26.7 km/h 97 % 0.0 in /  0 mm
22:12 8.2 °F /  -13.2 °C 7.8 °F /  -13.4 °C 998.9 in /  33822.8 hPa WSW 11.9 mph /  19.2 km/h 11.9 mph /  19.2 km/h 97 % 0.0 in /  0 mm
22:17 8.2 °F /  -13.2 °C 7.8 °F /  -13.4 °C 998.9 in /  33822.8 hPa WSW 11.9 mph /  19.2 km/h 11.9 mph /  19.2 km/h 97 % 0.0 in /  0 mm
22:22 8.2 °F /  -13.2 °C 7.8 °F /  -13.4 °C 998.9 in /  33822.8 hPa West 14.8 mph /  23.8 km/h 14.8 mph /  23.8 km/h 97 % 0.0 in /  0 mm
22:27 8.2 °F /  -13.2 °C 7.8 °F /  -13.4 °C 998.9 in /  33822.8 hPa West 14.8 mph /  23.8 km/h 14.8 mph /  23.8 km/h 97 % 0.0 in /  0 mm
22:32 8.2 °F /  -13.2 °C 7.8 °F /  -13.4 °C 998.9 in /  33822.8 hPa West 14.8 mph /  23.8 km/h 14.8 mph /  23.8 km/h 97 % 0.0 in /  0 mm
22:38 8.1 °F /  -13.3 °C 7.7 °F /  -13.5 °C 998.9 in /  33822.8 hPa West 14.8 mph /  23.8 km/h 14.8 mph /  23.8 km/h 97 % 0.0 in /  0 mm
22:43 8.1 °F /  -13.3 °C 7.7 °F /  -13.5 °C 998.9 in /  33822.8 hPa West 14.8 mph /  23.8 km/h 14.8 mph /  23.8 km/h 97 % 0.0 in /  0 mm
22:48 8.1 °F /  -13.3 °C 7.7 °F /  -13.5 °C 998.9 in /  33822.8 hPa West 14.8 mph /  23.8 km/h 14.8 mph /  23.8 km/h 97 % 0.0 in /  0 mm
22:53 8.1 °F /  -13.3 °C 7.7 °F /  -13.5 °C 998.9 in /  33822.8 hPa West 14.8 mph /  23.8 km/h 14.8 mph /  23.8 km/h 97 % 0.0 in /  0 mm
22:58 8.1 °F /  -13.3 °C 7.7 °F /  -13.5 °C 998.9 in /  33822.8 hPa West 14.8 mph /  23.8 km/h 14.8 mph /  23.8 km/h 97 % 0.0 in /  0 mm
23:03 8.1 °F /  -13.3 °C 7.7 °F /  -13.5 °C 998.9 in /  33822.8 hPa West 14.8 mph /  23.8 km/h 14.8 mph /  23.8 km/h 97 % 0.0 in /  0 mm
23:08 8.1 °F /  -13.3 °C 7.7 °F /  -13.5 °C 998.9 in /  33822.8 hPa West 14.8 mph /  23.8 km/h 14.8 mph /  23.8 km/h 97 % 0.0 in /  0 mm
23:13 8.1 °F /  -13.3 °C 7.7 °F /  -13.5 °C 998.9 in /  33822.8 hPa West 14.8 mph /  23.8 km/h 14.8 mph /  23.8 km/h 97 % 0.0 in /  0 mm
23:18 8.2 °F /  -13.2 °C 7.8 °F /  -13.4 °C 998.9 in /  33822.8 hPa WSW 14.8 mph /  23.8 km/h 16.3 mph /  26.2 km/h 97 % 0.0 in /  0 mm
23:23 8.3 °F /  -13.2 °C 7.9 °F /  -13.4 °C 998.9 in /  33822.8 hPa WSW 14.8 mph /  23.8 km/h 16.3 mph /  26.2 km/h 97 % 0.3 in /  7.62 mm
23:28 8.3 °F /  -13.2 °C 7.9 °F /  -13.4 °C 998.9 in /  33822.8 hPa WSW 14.0 mph /  22.5 km/h 16.3 mph /  26.2 km/h 97 % 0.3 in /  7.62 mm
23:33 8.3 °F /  -13.2 °C 7.9 °F /  -13.4 °C 998.9 in /  33822.8 hPa SW 9.0 mph /  14.5 km/h 16.3 mph /  26.2 km/h 97 % 0.3 in /  7.62 mm
23:38 8.3 °F /  -13.2 °C 7.9 °F /  -13.4 °C 998.9 in /  33822.8 hPa WSW 15.8 mph /  25.4 km/h 16.9 mph /  27.2 km/h 97 % 0.3 in /  7.62 mm
23:43 8.4 °F /  -13.1 °C 8.1 °F /  -13.3 °C 997.9 in /  33788.9 hPa West 16.6 mph /  26.7 km/h 20.9 mph /  33.6 km/h 98 % 0.5 in /  12.7 mm
23:48 8.5 °F /  -13.1 °C 8.2 °F /  -13.2 °C 997.9 in /  33788.9 hPa WSW 31.7 mph /  51 km/h 31.7 mph /  51 km/h 98 % 1.0 in /  25.4 mm
23:53 8.6 °F /  -13 °C 8.3 °F /  -13.2 °C 998.9 in /  33822.8 hPa WSW 31.7 mph /  51 km/h 31.7 mph /  51 km/h 98 % 1.0 in /  25.4 mm
23:58 8.6 °F /  -13 °C 8.3 °F /  -13.2 °C 998.9 in /  33822.8 hPa WSW 31.7 mph /  51 km/h 31.7 mph /  51 km/h 98 % 1.0 in /  25.4 mm
Le Gheer Warneton
Courtoisie de Weather Underground - 2.25 mb

Mise a jour : 18/02/2018 20:52:11
Généré par Cumulus 1.9.4 (1099)